createdAt,value
2023-06-04T00:01:04.114Z,6.65
2023-06-04T00:03:51.894Z,6.65
2023-06-04T00:06:19.741Z,6.60
2023-06-04T00:08:47.242Z,6.59
2023-06-04T00:11:14.893Z,6.55
2023-06-04T00:13:42.497Z,6.48
2023-06-04T00:16:10.095Z,6.45
2023-06-04T00:18:37.862Z,6.40
2023-06-04T00:21:05.903Z,6.34
2023-06-04T00:23:34.009Z,6.32
2023-06-04T00:26:01.671Z,6.26
2023-06-04T00:28:30.791Z,6.17
2023-06-04T00:30:59.464Z,6.11
2023-06-04T00:33:27.099Z,6.05
2023-06-04T00:35:54.843Z,6.02
2023-06-04T00:38:25.059Z,5.98
2023-06-04T00:40:52.606Z,5.93
2023-06-04T00:43:20.211Z,5.90
2023-06-04T00:45:47.872Z,5.85
2023-06-04T00:48:15.592Z,5.74
2023-06-04T00:50:43.413Z,5.69
2023-06-04T00:53:11.987Z,5.69
2023-06-04T00:55:39.767Z,5.63
2023-06-04T00:58:07.375Z,5.54
2023-06-04T01:00:35.801Z,5.46
2023-06-04T01:03:07.187Z,5.43
2023-06-04T01:05:35.357Z,5.38
2023-06-04T01:08:03.113Z,5.32
2023-06-04T01:10:30.717Z,5.28
2023-06-04T01:12:58.431Z,5.29
2023-06-04T01:15:26.060Z,5.29
2023-06-04T01:17:54.118Z,5.28
2023-06-04T01:20:21.768Z,5.28
2023-06-04T01:22:49.495Z,5.24
2023-06-04T01:25:20.820Z,5.25
2023-06-04T01:27:50.075Z,5.24
2023-06-04T01:30:17.620Z,5.22
2023-06-04T01:32:45.406Z,5.20
2023-06-04T01:35:12.957Z,5.14
2023-06-04T01:37:40.515Z,5.05
2023-06-04T01:40:11.274Z,4.99
2023-06-04T01:42:38.970Z,4.95
2023-06-04T01:45:06.747Z,4.88
2023-06-04T01:47:35.049Z,4.87
2023-06-04T01:50:02.750Z,4.85
2023-06-04T01:52:30.414Z,4.81
2023-06-04T01:54:58.467Z,4.79
2023-06-04T01:57:26.393Z,4.68
2023-06-04T01:59:54.019Z,4.64
2023-06-04T02:02:21.877Z,4.61
2023-06-04T02:04:55.339Z,4.56
2023-06-04T02:07:22.939Z,4.54
2023-06-04T02:09:50.491Z,4.49
2023-06-04T02:12:19.371Z,4.46
2023-06-04T02:14:48.254Z,4.42
2023-06-04T02:17:17.453Z,4.34
2023-06-04T02:19:46.133Z,4.32
2023-06-04T02:22:13.714Z,4.32
2023-06-04T02:24:43.312Z,4.28
2023-06-04T02:27:11.681Z,4.23
2023-06-04T02:29:39.292Z,4.17
2023-06-04T02:32:06.887Z,4.06
2023-06-04T02:34:37.357Z,4.02
2023-06-04T02:37:05.036Z,4.01
2023-06-04T02:39:32.547Z,4.04
2023-06-04T02:42:00.185Z,4.04
2023-06-04T02:44:27.889Z,4.06
2023-06-04T02:46:55.741Z,4.08
2023-06-04T02:49:23.323Z,4.06
2023-06-04T02:51:51.320Z,4.02
2023-06-04T02:54:19.110Z,3.97
2023-06-04T02:56:46.781Z,3.92
2023-06-04T02:59:15.201Z,3.88
2023-06-04T03:01:42.843Z,3.86
2023-06-04T03:04:15.706Z,3.85
2023-06-04T03:06:47.640Z,3.85
2023-06-04T03:09:17.069Z,3.85
2023-06-04T03:11:44.667Z,3.81
2023-06-04T03:14:12.492Z,3.84
2023-06-04T03:16:41.166Z,3.96
2023-06-04T03:19:12.741Z,4.07
2023-06-04T03:21:41.143Z,4.21
2023-06-04T03:24:08.732Z,4.36
2023-06-04T03:26:36.370Z,4.50
2023-06-04T03:29:05.289Z,4.57
2023-06-04T03:31:33.781Z,4.64
2023-06-04T03:34:01.515Z,4.83
2023-06-04T03:36:32.821Z,4.97
2023-06-04T03:39:00.776Z,5.09
2023-06-04T03:41:30.776Z,5.29
2023-06-04T03:43:58.580Z,5.49
2023-06-04T03:46:32.869Z,5.69
2023-06-04T03:49:00.519Z,5.86
2023-06-04T03:51:28.209Z,5.99
2023-06-04T03:53:56.422Z,6.11
2023-06-04T03:56:24.151Z,6.28
2023-06-04T03:58:51.816Z,6.41
2023-06-04T04:01:19.468Z,6.51
2023-06-04T04:03:50.879Z,6.73
2023-06-04T04:06:18.580Z,7.01
2023-06-04T04:08:46.128Z,7.24
2023-06-04T04:11:13.806Z,7.51
2023-06-04T04:13:41.295Z,7.76
2023-06-04T04:16:08.876Z,7.92
2023-06-04T04:18:37.607Z,8.10
2023-06-04T04:21:05.283Z,8.22
2023-06-04T04:23:33.171Z,8.33
2023-06-04T04:26:00.962Z,8.45
2023-06-04T04:28:33.240Z,8.66
2023-06-04T04:31:09.877Z,8.83
2023-06-04T04:33:40.962Z,8.79
2023-06-04T04:36:14.314Z,8.65
2023-06-04T04:38:42.317Z,8.40
2023-06-04T04:41:09.910Z,8.41
2023-06-04T04:43:40.114Z,8.61
2023-06-04T04:46:07.818Z,8.58
2023-06-04T04:48:35.453Z,8.54
2023-06-04T04:51:03.587Z,8.34
2023-06-04T04:53:31.158Z,8.17
2023-06-04T04:55:58.735Z,8.21
2023-06-04T04:58:27.148Z,8.33
2023-06-04T05:00:54.683Z,8.53
2023-06-04T05:03:22.348Z,8.59
2023-06-04T05:05:49.938Z,8.59
2023-06-04T05:08:17.482Z,8.63
2023-06-04T05:10:45.008Z,8.75
2023-06-04T05:13:12.648Z,8.77
2023-06-04T05:15:41.096Z,8.66
2023-06-04T05:18:08.827Z,8.68
2023-06-04T05:20:38.805Z,8.89
2023-06-04T05:23:06.798Z,9.11
2023-06-04T05:25:34.388Z,9.25
2023-06-04T05:28:02.869Z,9.38
2023-06-04T05:30:32.749Z,9.52
2023-06-04T05:33:00.403Z,9.54
2023-06-04T05:35:28.307Z,9.60
2023-06-04T05:37:55.971Z,9.69
2023-06-04T05:40:24.681Z,9.76
2023-06-04T05:42:52.280Z,9.78
2023-06-04T05:45:19.882Z,9.86
2023-06-04T05:47:47.588Z,9.93
2023-06-04T05:50:15.259Z,9.87
2023-06-04T05:52:43.074Z,9.86
2023-06-04T05:55:11.347Z,9.87
2023-06-04T05:57:39.243Z,9.93
2023-06-04T06:00:10.578Z,10.04
2023-06-04T06:02:40.197Z,10.07
2023-06-04T06:05:09.437Z,10.09
2023-06-04T06:07:37.210Z,10.22
2023-06-04T06:10:04.905Z,10.35
2023-06-04T06:12:32.605Z,10.39
2023-06-04T06:15:00.213Z,10.45
2023-06-04T06:17:27.998Z,10.52
2023-06-04T06:19:56.372Z,10.62
2023-06-04T06:22:23.895Z,10.75
2023-06-04T06:24:52.981Z,10.90
2023-06-04T06:27:20.571Z,11.05
2023-06-04T06:29:48.141Z,11.22
2023-06-04T06:32:15.897Z,11.40
2023-06-04T06:34:43.687Z,11.58
2023-06-04T06:37:11.290Z,11.70
2023-06-04T06:39:39.008Z,11.80
2023-06-04T06:42:07.116Z,11.98
2023-06-04T06:44:34.711Z,12.18
2023-06-04T06:47:02.371Z,12.36
2023-06-04T06:49:30.193Z,12.49
2023-06-04T06:51:58.346Z,12.55
2023-06-04T06:54:26.981Z,12.66
2023-06-04T06:56:54.530Z,12.82
2023-06-04T06:59:25.288Z,12.99
2023-06-04T07:01:53.087Z,13.16
2023-06-04T07:04:23.373Z,13.39
2023-06-04T07:06:51.602Z,13.58
2023-06-04T07:09:19.524Z,13.67
2023-06-04T07:11:47.174Z,13.72
2023-06-04T07:14:14.830Z,13.77
2023-06-04T07:16:42.486Z,13.77
2023-06-04T07:19:10.006Z,13.86
2023-06-04T07:21:37.542Z,13.99
2023-06-04T07:24:05.289Z,14.19
2023-06-04T07:26:35.137Z,14.42
2023-06-04T07:29:03.108Z,14.63
2023-06-04T07:31:30.760Z,14.85
2023-06-04T07:33:58.285Z,15.08
2023-06-04T07:36:25.971Z,15.13
2023-06-04T07:38:53.556Z,15.01
2023-06-04T07:41:21.336Z,15.00
2023-06-04T07:43:48.896Z,15.06
2023-06-04T07:46:20.124Z,15.14
2023-06-04T07:48:49.408Z,15.11
2023-06-04T07:51:17.442Z,15.12
2023-06-04T07:53:45.962Z,15.09
2023-06-04T07:56:13.507Z,15.11
2023-06-04T07:58:44.423Z,15.22
2023-06-04T08:01:11.972Z,15.37
2023-06-04T08:03:39.778Z,15.55
2023-06-04T08:06:07.559Z,15.63
2023-06-04T08:08:35.265Z,15.69
2023-06-04T08:11:03.687Z,15.72
2023-06-04T08:13:31.245Z,15.65
2023-06-04T08:15:58.996Z,15.69
2023-06-04T08:18:26.908Z,15.75
2023-06-04T08:20:54.539Z,15.73
2023-06-04T08:23:22.207Z,15.69
2023-06-04T08:25:49.893Z,15.66
2023-06-04T08:28:20.443Z,15.65
2023-06-04T08:30:48.220Z,15.65
2023-06-04T08:33:16.295Z,15.77
2023-06-04T08:35:43.844Z,15.84
2023-06-04T08:38:11.422Z,15.80
2023-06-04T08:40:39.274Z,15.81
2023-06-04T08:43:06.935Z,15.86
2023-06-04T08:45:34.546Z,15.94
2023-06-04T08:48:02.340Z,16.08
2023-06-04T08:50:30.004Z,16.12
2023-06-04T08:52:58.592Z,16.18
2023-06-04T08:55:26.265Z,16.25
2023-06-04T08:57:56.189Z,16.26
2023-06-04T09:00:23.800Z,16.25
2023-06-04T09:02:52.225Z,16.34
2023-06-04T09:05:20.339Z,16.38
2023-06-04T09:07:50.095Z,16.50
2023-06-04T09:10:17.893Z,16.51
2023-06-04T09:12:45.895Z,16.52
2023-06-04T09:15:13.606Z,16.63
2023-06-04T09:17:41.868Z,16.69
2023-06-04T09:20:10.113Z,16.85
2023-06-04T09:22:38.588Z,17.09
2023-06-04T09:25:06.122Z,17.27
2023-06-04T09:27:39.483Z,17.41
2023-06-04T09:30:07.345Z,17.41
2023-06-04T09:32:34.906Z,17.33
2023-06-04T09:35:02.529Z,17.31
2023-06-04T09:37:30.294Z,17.34
2023-06-04T09:40:02.178Z,17.43
2023-06-04T09:42:29.896Z,17.37
2023-06-04T09:45:06.786Z,17.43
2023-06-04T09:47:34.891Z,17.45
2023-06-04T09:50:02.492Z,17.55
2023-06-04T09:52:30.072Z,17.62
2023-06-04T09:54:57.644Z,17.70
2023-06-04T09:57:26.416Z,17.83
2023-06-04T09:59:55.665Z,17.87
2023-06-04T10:02:23.465Z,17.85
2023-06-04T10:04:51.965Z,17.78
2023-06-04T10:07:19.619Z,17.86
2023-06-04T10:09:47.134Z,18.05
2023-06-04T10:12:15.855Z,18.23
2023-06-04T10:14:43.778Z,18.12
2023-06-04T10:17:11.465Z,18.07
2023-06-04T10:19:39.293Z,18.09
2023-06-04T10:22:07.215Z,18.01
2023-06-04T10:24:34.795Z,18.00
2023-06-04T10:27:02.362Z,18.15
2023-06-04T10:29:30.012Z,18.33
2023-06-04T10:31:57.698Z,18.38
2023-06-04T10:34:25.233Z,18.41
2023-06-04T10:36:53.527Z,18.27
2023-06-04T10:39:21.079Z,18.30
2023-06-04T10:41:48.639Z,18.35
2023-06-04T10:44:16.307Z,18.36
2023-06-04T10:46:44.172Z,18.38
2023-06-04T10:49:15.925Z,18.52
2023-06-04T10:51:45.447Z,18.69
2023-06-04T10:54:12.994Z,18.58
2023-06-04T10:56:40.730Z,18.55
2023-06-04T10:59:08.823Z,18.48
2023-06-04T11:01:37.356Z,18.53
2023-06-04T11:04:05.160Z,18.60
2023-06-04T11:06:33.919Z,18.67
2023-06-04T11:09:01.556Z,18.66
2023-06-04T11:11:29.215Z,18.66
2023-06-04T11:13:57.643Z,18.71
2023-06-04T11:16:25.890Z,18.73
2023-06-04T11:18:53.490Z,18.73
2023-06-04T11:21:22.433Z,18.75
2023-06-04T11:23:50.260Z,18.70
2023-06-04T11:26:18.548Z,18.69
2023-06-04T11:28:47.267Z,18.77
2023-06-04T11:31:14.942Z,18.86
2023-06-04T11:33:43.621Z,18.89
2023-06-04T11:36:11.761Z,18.96
2023-06-04T11:38:39.601Z,19.08
2023-06-04T11:41:07.880Z,19.07
2023-06-04T11:43:40.642Z,19.10
2023-06-04T11:46:10.955Z,19.15
2023-06-04T11:48:39.702Z,19.17
2023-06-04T11:51:10.372Z,19.15
2023-06-04T11:53:38.022Z,19.31
2023-06-04T11:56:08.727Z,19.50
2023-06-04T11:58:36.401Z,19.55
2023-06-04T12:01:07.639Z,19.55
2023-06-04T12:03:38.890Z,19.49
2023-06-04T12:06:07.126Z,19.43
2023-06-04T12:08:34.690Z,19.39
2023-06-04T12:11:02.365Z,19.28
2023-06-04T12:13:30.801Z,19.39
2023-06-04T12:15:58.634Z,19.58
2023-06-04T12:18:27.597Z,19.61
2023-06-04T12:20:55.536Z,19.62
2023-06-04T12:23:23.309Z,19.62
2023-06-04T12:25:51.717Z,19.66
2023-06-04T12:28:20.082Z,19.68
2023-06-04T12:30:47.917Z,19.81
2023-06-04T12:33:15.644Z,19.98
2023-06-04T12:35:43.248Z,20.01
2023-06-04T12:38:11.691Z,19.95
2023-06-04T12:40:40.740Z,19.99
2023-06-04T12:43:09.525Z,20.05
2023-06-04T12:45:37.331Z,20.12
2023-06-04T12:48:04.898Z,20.26
2023-06-04T12:50:32.660Z,20.37
2023-06-04T12:53:00.290Z,20.38
2023-06-04T12:55:28.530Z,20.31
2023-06-04T12:57:56.986Z,20.27
2023-06-04T13:00:24.787Z,20.26
2023-06-04T13:02:52.736Z,20.25
2023-06-04T13:05:22.994Z,20.24
2023-06-04T13:07:51.208Z,20.11
2023-06-04T13:10:18.898Z,20.08
2023-06-04T13:12:46.630Z,20.13
2023-06-04T13:15:14.538Z,20.10
2023-06-04T13:17:42.249Z,20.05
2023-06-04T13:20:11.113Z,20.00
2023-06-04T13:22:39.927Z,20.05
2023-06-04T13:25:08.545Z,20.14
2023-06-04T13:27:37.004Z,20.23
2023-06-04T13:30:04.738Z,20.21
2023-06-04T13:32:32.536Z,20.29
2023-06-04T13:35:00.297Z,20.38
2023-06-04T13:37:27.902Z,20.36
2023-06-04T13:39:55.496Z,20.36
2023-06-04T13:42:23.014Z,20.37
2023-06-04T13:44:50.589Z,20.45
2023-06-04T13:47:19.459Z,20.49
2023-06-04T13:49:47.152Z,20.60
2023-06-04T13:52:14.669Z,20.72
2023-06-04T13:54:42.226Z,20.78
2023-06-04T13:57:12.751Z,20.65
2023-06-04T13:59:40.604Z,20.59
2023-06-04T14:02:08.682Z,20.58
2023-06-04T14:04:37.123Z,20.56
2023-06-04T14:07:04.702Z,20.52
2023-06-04T14:09:32.291Z,20.56
2023-06-04T14:12:06.706Z,20.70
2023-06-04T14:14:37.592Z,20.79
2023-06-04T14:17:05.458Z,20.80
2023-06-04T14:19:33.265Z,20.88
2023-06-04T14:22:00.845Z,20.93
2023-06-04T14:24:28.674Z,21.01
2023-06-04T14:26:56.765Z,21.10
2023-06-04T14:29:24.315Z,21.10
2023-06-04T14:31:51.881Z,21.01
2023-06-04T14:34:19.704Z,21.11
2023-06-04T14:36:48.560Z,21.21
2023-06-04T14:39:16.292Z,21.13
2023-06-04T14:41:43.970Z,21.20
2023-06-04T14:44:11.506Z,21.23
2023-06-04T14:46:40.135Z,21.14
2023-06-04T14:49:07.982Z,21.12
2023-06-04T14:51:35.888Z,21.17
2023-06-04T14:54:04.141Z,21.20
2023-06-04T14:56:31.782Z,21.21
2023-06-04T14:58:59.414Z,21.28
2023-06-04T15:01:27.041Z,21.48
2023-06-04T15:03:55.004Z,21.71
2023-06-04T15:06:22.586Z,21.79
2023-06-04T15:08:51.058Z,21.89
2023-06-04T15:11:18.783Z,21.88
2023-06-04T15:13:46.434Z,21.81
2023-06-04T15:16:14.338Z,21.57
2023-06-04T15:18:44.929Z,21.29
2023-06-04T15:21:12.760Z,20.96
2023-06-04T15:23:40.895Z,20.83
2023-06-04T15:26:08.443Z,20.84
2023-06-04T15:28:36.876Z,20.81
2023-06-04T15:31:04.525Z,20.71
2023-06-04T15:33:32.307Z,20.57
2023-06-04T15:36:00.167Z,20.45
2023-06-04T15:38:29.619Z,20.32
2023-06-04T15:40:59.565Z,20.16
2023-06-04T15:43:27.122Z,20.05
2023-06-04T15:45:54.875Z,20.02
2023-06-04T15:48:22.596Z,19.93
2023-06-04T15:50:50.627Z,19.88
2023-06-04T15:53:19.217Z,19.79
2023-06-04T15:55:46.842Z,19.73
2023-06-04T15:58:14.574Z,19.60
2023-06-04T16:00:42.350Z,19.57
2023-06-04T16:03:10.136Z,19.58
2023-06-04T16:05:38.958Z,19.55
2023-06-04T16:08:06.534Z,19.55
2023-06-04T16:10:34.565Z,19.60
2023-06-04T16:13:02.484Z,19.68
2023-06-04T16:15:30.532Z,19.81
2023-06-04T16:17:58.618Z,19.90
2023-06-04T16:20:26.408Z,19.93
2023-06-04T16:22:54.162Z,19.94
2023-06-04T16:25:23.229Z,20.03
2023-06-04T16:27:53.208Z,20.03
2023-06-04T16:30:22.901Z,19.95
2023-06-04T16:32:50.701Z,19.97
2023-06-04T16:35:18.622Z,19.91
2023-06-04T16:37:46.777Z,19.86
2023-06-04T16:40:17.205Z,19.86
2023-06-04T16:42:44.993Z,19.87
2023-06-04T16:45:12.860Z,19.89
2023-06-04T16:47:42.640Z,20.10
2023-06-04T16:50:10.823Z,20.32
2023-06-04T16:52:38.581Z,20.55
2023-06-04T16:55:06.907Z,20.62
2023-06-04T16:57:34.935Z,20.51
2023-06-04T17:00:13.394Z,20.42
2023-06-04T17:02:45.818Z,20.32
2023-06-04T17:05:24.595Z,20.31
2023-06-04T17:07:53.481Z,20.48
2023-06-04T17:10:22.527Z,20.61
2023-06-04T17:12:50.121Z,20.74
2023-06-04T17:15:18.185Z,20.82
2023-06-04T17:17:47.776Z,20.88
2023-06-04T17:20:17.794Z,20.82
2023-06-04T17:22:46.339Z,20.83
2023-06-04T17:25:14.186Z,20.86
2023-06-04T17:27:42.031Z,20.87
2023-06-04T17:30:09.935Z,20.77
2023-06-04T17:32:39.248Z,20.48
2023-06-04T17:35:07.552Z,20.18
2023-06-04T17:37:38.012Z,19.94
2023-06-04T17:40:06.113Z,19.73
2023-06-04T17:42:36.374Z,19.50
2023-06-04T17:45:08.873Z,19.28
2023-06-04T17:47:37.369Z,19.11
2023-06-04T17:50:08.069Z,18.96
2023-06-04T17:52:36.107Z,18.81
2023-06-04T17:55:03.933Z,18.65
2023-06-04T17:57:31.951Z,18.47
2023-06-04T18:00:00.298Z,18.35
2023-06-04T18:02:28.592Z,18.25
2023-06-04T18:05:00.751Z,18.19
2023-06-04T18:07:28.411Z,18.10
2023-06-04T18:09:56.182Z,18.01
2023-06-04T18:12:24.238Z,17.93
2023-06-04T18:14:52.524Z,17.86
2023-06-04T18:17:21.172Z,17.76
2023-06-04T18:19:52.576Z,17.70
2023-06-04T18:22:20.325Z,17.61
2023-06-04T18:24:48.723Z,17.54
2023-06-04T18:27:16.762Z,17.47
2023-06-04T18:29:46.828Z,17.38
2023-06-04T18:32:15.601Z,17.29
2023-06-04T18:34:43.252Z,17.21
2023-06-04T18:37:11.822Z,17.16
2023-06-04T18:39:40.304Z,17.12
2023-06-04T18:42:28.595Z,17.08
2023-06-04T18:44:58.428Z,17.00
2023-06-04T18:47:27.042Z,16.93
2023-06-04T18:49:56.912Z,16.85
2023-06-04T18:52:25.497Z,16.76
2023-06-04T18:54:54.228Z,16.67
2023-06-04T18:57:23.462Z,16.63
2023-06-04T18:59:51.475Z,16.61
2023-06-04T19:02:19.528Z,16.57
2023-06-04T19:04:49.184Z,16.48
2023-06-04T19:07:18.258Z,16.41
2023-06-04T19:09:46.120Z,16.42
2023-06-04T19:12:14.345Z,16.38
2023-06-04T19:14:41.891Z,16.34
2023-06-04T19:17:09.778Z,16.33
2023-06-04T19:19:39.271Z,16.30
2023-06-04T19:22:06.942Z,16.22
2023-06-04T19:24:34.806Z,16.15
2023-06-04T19:27:10.266Z,16.06
2023-06-04T19:29:43.655Z,15.99
2023-06-04T19:32:11.646Z,15.94
2023-06-04T19:34:39.780Z,15.92
2023-06-04T19:37:07.481Z,15.91
2023-06-04T19:39:36.836Z,15.86
2023-06-04T19:42:06.588Z,15.71
2023-06-04T19:44:37.157Z,15.53
2023-06-04T19:47:07.220Z,15.44
2023-06-04T19:49:35.232Z,15.32
2023-06-04T19:52:03.189Z,15.19
2023-06-04T19:54:31.476Z,15.16
2023-06-04T19:57:00.136Z,15.07
2023-06-04T19:59:27.968Z,14.95
2023-06-04T20:01:57.308Z,14.75
2023-06-04T20:04:24.989Z,14.59
2023-06-04T20:06:57.577Z,14.51
2023-06-04T20:09:29.094Z,14.43
2023-06-04T20:11:58.167Z,14.31
2023-06-04T20:14:25.831Z,14.29
2023-06-04T20:16:54.698Z,14.31
2023-06-04T20:19:23.234Z,14.35
2023-06-04T20:21:50.864Z,14.34
2023-06-04T20:24:20.929Z,14.26
2023-06-04T20:26:49.102Z,14.19
2023-06-04T20:29:16.710Z,14.15
2023-06-04T20:31:47.295Z,14.08
2023-06-04T20:34:15.724Z,14.03
2023-06-04T20:36:43.557Z,13.99
2023-06-04T20:39:16.354Z,13.93
2023-06-04T20:41:44.138Z,13.87
2023-06-04T20:44:12.137Z,13.82
2023-06-04T20:46:39.962Z,13.80
2023-06-04T20:49:07.565Z,13.77
2023-06-04T20:51:36.534Z,13.72
2023-06-04T20:54:04.126Z,13.67
2023-06-04T20:56:32.009Z,13.57
2023-06-04T20:59:01.827Z,13.44
2023-06-04T21:01:30.929Z,13.25
2023-06-04T21:04:01.630Z,13.13
2023-06-04T21:06:29.568Z,13.05
2023-06-04T21:08:57.226Z,12.96
2023-06-04T21:11:24.964Z,12.86
2023-06-04T21:13:52.517Z,12.77
2023-06-04T21:16:20.194Z,12.71
2023-06-04T21:18:47.762Z,12.68
2023-06-04T21:21:15.320Z,12.66
2023-06-04T21:23:44.285Z,12.64
2023-06-04T21:26:11.886Z,12.55
2023-06-04T21:28:39.568Z,12.47
2023-06-04T21:31:07.508Z,12.32
2023-06-04T21:33:35.379Z,12.19
2023-06-04T21:36:02.992Z,12.18
2023-06-04T21:38:30.883Z,12.17
2023-06-04T21:40:58.472Z,12.17
2023-06-04T21:43:26.835Z,12.15
2023-06-04T21:45:55.272Z,12.10
2023-06-04T21:48:23.304Z,12.05
2023-06-04T21:50:50.944Z,11.96
2023-06-04T21:53:19.549Z,11.90
2023-06-04T21:55:47.196Z,11.86
2023-06-04T21:58:14.884Z,11.85
2023-06-04T22:00:42.738Z,11.84
2023-06-04T22:03:10.624Z,11.78
2023-06-04T22:05:39.071Z,11.70
2023-06-04T22:08:06.871Z,11.63
2023-06-04T22:10:34.882Z,11.55
2023-06-04T22:13:02.878Z,11.54
2023-06-04T22:15:31.042Z,11.53
2023-06-04T22:18:00.782Z,11.51
2023-06-04T22:20:28.833Z,11.47
2023-06-04T22:22:56.439Z,11.41
2023-06-04T22:25:24.026Z,11.33
2023-06-04T22:27:52.881Z,11.32
2023-06-04T22:30:20.796Z,11.29
2023-06-04T22:32:49.056Z,11.27
2023-06-04T22:35:16.782Z,11.26
2023-06-04T22:37:46.270Z,11.25
2023-06-04T22:40:15.151Z,11.20
2023-06-04T22:42:42.771Z,11.15
2023-06-04T22:45:10.577Z,11.10
2023-06-04T22:47:38.138Z,11.08
2023-06-04T22:50:06.876Z,11.03
2023-06-04T22:52:34.812Z,10.99
2023-06-04T22:55:04.662Z,10.86
2023-06-04T22:57:32.176Z,10.74
2023-06-04T22:59:59.820Z,10.70
2023-06-04T23:02:27.466Z,10.64
2023-06-04T23:04:55.273Z,10.61
2023-06-04T23:07:23.017Z,10.55
2023-06-04T23:09:50.814Z,10.49
2023-06-04T23:12:18.382Z,10.44
2023-06-04T23:14:46.133Z,10.39
2023-06-04T23:17:13.877Z,10.29
2023-06-04T23:19:41.469Z,10.17
2023-06-04T23:22:09.175Z,10.09
2023-06-04T23:24:37.176Z,9.97
2023-06-04T23:27:04.729Z,9.90
2023-06-04T23:29:32.425Z,9.88
2023-06-04T23:32:00.507Z,9.84
2023-06-04T23:34:28.286Z,9.78
2023-06-04T23:36:59.641Z,9.73
2023-06-04T23:39:27.327Z,9.70
2023-06-04T23:41:54.885Z,9.64
2023-06-04T23:44:22.701Z,9.57
2023-06-04T23:46:50.689Z,9.54
2023-06-04T23:49:18.285Z,9.52
2023-06-04T23:51:45.891Z,9.50
2023-06-04T23:54:13.560Z,9.46
2023-06-04T23:56:44.040Z,9.45
2023-06-04T23:59:12.156Z,9.41
